sensor_id;sensor_type;location;lat;lon;timestamp;pressure;altitude;pressure_sealevel;temperature;humidity
45763;BME280;37512;52.408;13.356;2024-01-15T00:02:39;98846.59;;;2.23;100.00
45763;BME280;37512;52.408;13.356;2024-01-15T00:06:40;98840.00;;;2.19;100.00
45763;BME280;37512;52.408;13.356;2024-01-15T00:10:45;98842.53;;;1.88;100.00
45763;BME280;37512;52.408;13.356;2024-01-15T00:14:49;98828.34;;;1.97;100.00
45763;BME280;37512;52.408;13.356;2024-01-15T00:18:52;98810.47;;;2.07;100.00
45763;BME280;37512;52.408;13.356;2024-01-15T00:22:54;98803.81;;;2.19;100.00
45763;BME280;37512;52.408;13.356;2024-01-15T00:26:58;98782.00;;;2.25;100.00
45763;BME280;37512;52.408;13.356;2024-01-15T00:31:00;98820.31;;;2.21;100.00
45763;BME280;37512;52.408;13.356;2024-01-15T00:35:01;98802.34;;;2.17;100.00
45763;BME280;37512;52.408;13.356;2024-01-15T00:39:04;98773.38;;;1.92;100.00
45763;BME280;37512;52.408;13.356;2024-01-15T00:43:06;98761.84;;;2.24;100.00
45763;BME280;37512;52.408;13.356;2024-01-15T00:47:09;98768.47;;;2.28;100.00
45763;BME280;37512;52.408;13.356;2024-01-15T00:51:13;98767.47;;;2.21;100.00
45763;BME280;37512;52.408;13.356;2024-01-15T00:55:16;98768.03;;;2.08;100.00
45763;BME280;37512;52.408;13.356;2024-01-15T00:59:18;98754.19;;;2.37;100.00
45763;BME280;37512;52.408;13.356;2024-01-15T01:03:19;98757.38;;;2.25;100.00
45763;BME280;37512;52.408;13.356;2024-01-15T01:07:21;98748.19;;;2.13;100.00
45763;BME280;37512;52.408;13.356;2024-01-15T01:11:22;98744.34;;;2.23;100.00
45763;BME280;37512;52.408;13.356;2024-01-15T01:15:24;98743.63;;;2.37;100.00
45763;BME280;37512;52.408;13.356;2024-01-15T01:19:28;98746.78;;;2.33;100.00
45763;BME280;37512;52.408;13.356;2024-01-15T01:23:32;98754.91;;;2.23;100.00
45763;BME280;37512;52.408;13.356;2024-01-15T01:27:33;98747.25;;;2.36;100.00
45763;BME280;37512;52.408;13.356;2024-01-15T01:31:35;98744.16;;;1.94;100.00
45763;BME280;37512;52.408;13.356;2024-01-15T01:35:37;98763.19;;;1.65;100.00
45763;BME280;37512;52.408;13.356;2024-01-15T01:39:38;98742.69;;;1.83;100.00
45763;BME280;37512;52.408;13.356;2024-01-15T01:43:43;98734.28;;;1.71;100.00
45763;BME280;37512;52.408;13.356;2024-01-15T01:47:48;98740.03;;;1.83;100.00
45763;BME280;37512;52.408;13.356;2024-01-15T01:51:50;98738.03;;;1.85;100.00
45763;BME280;37512;52.408;13.356;2024-01-15T01:55:55;98739.53;;;1.88;100.00
45763;BME280;37512;52.408;13.356;2024-01-15T01:59:59;98735.81;;;2.13;100.00
45763;BME280;37512;52.408;13.356;2024-01-15T02:04:01;98744.16;;;1.86;100.00
45763;BME280;37512;52.408;13.356;2024-01-15T02:08:03;98729.00;;;2.19;100.00
45763;BME280;37512;52.408;13.356;2024-01-15T02:12:06;98719.22;;;1.88;100.00
45763;BME280;37512;52.408;13.356;2024-01-15T02:16:07;98732.59;;;1.95;100.00
45763;BME280;37512;52.408;13.356;2024-01-15T02:20:10;98732.09;;;1.91;100.00
45763;BME280;37512;52.408;13.356;2024-01-15T02:24:13;98723.84;;;2.25;100.00
45763;BME280;37512;52.408;13.356;2024-01-15T02:28:16;98723.88;;;1.78;100.00
45763;BME280;37512;52.408;13.356;2024-01-15T02:32:19;98727.13;;;1.88;100.00
45763;BME280;37512;52.408;13.356;2024-01-15T02:36:20;98717.00;;;2.08;100.00
45763;BME280;37512;52.408;13.356;2024-01-15T02:40:22;98724.53;;;1.80;100.00
45763;BME280;37512;52.408;13.356;2024-01-15T02:44:26;98728.78;;;1.89;100.00
45763;BME280;37512;52.408;13.356;2024-01-15T02:48:28;98724.66;;;1.95;100.00
45763;BME280;37512;52.408;13.356;2024-01-15T02:52:29;98721.03;;;1.96;100.00
45763;BME280;37512;52.408;13.356;2024-01-15T02:56:31;98709.47;;;1.89;100.00
45763;BME280;37512;52.408;13.356;2024-01-15T03:00:32;98724.47;;;1.96;100.00
45763;BME280;37512;52.408;13.356;2024-01-15T03:04:37;98710.00;;;1.84;100.00
45763;BME280;37512;52.408;13.356;2024-01-15T03:08:38;98714.50;;;1.67;100.00
45763;BME280;37512;52.408;13.356;2024-01-15T03:12:40;98697.47;;;1.78;100.00
45763;BME280;37512;52.408;13.356;2024-01-15T03:16:42;98692.25;;;2.01;100.00
45763;BME280;37512;52.408;13.356;2024-01-15T03:20:43;98694.38;;;2.05;100.00
45763;BME280;37512;52.408;13.356;2024-01-15T03:24:47;98680.25;;;1.90;100.00
45763;BME280;37512;52.408;13.356;2024-01-15T03:28:49;98688.38;;;1.80;100.00
45763;BME280;37512;52.408;13.356;2024-01-15T03:32:51;98679.88;;;2.01;100.00
45763;BME280;37512;52.408;13.356;2024-01-15T03:36:52;98689.63;;;2.01;100.00
45763;BME280;37512;52.408;13.356;2024-01-15T03:40:56;98681.22;;;1.97;100.00
45763;BME280;37512;52.408;13.356;2024-01-15T03:44:58;98681.94;;;1.91;100.00
45763;BME280;37512;52.408;13.356;2024-01-15T03:49:00;98676.88;;;2.13;100.00
45763;BME280;37512;52.408;13.356;2024-01-15T03:53:01;98676.41;;;2.09;100.00
45763;BME280;37512;52.408;13.356;2024-01-15T03:57:03;98662.72;;;1.97;100.00
45763;BME280;37512;52.408;13.356;2024-01-15T04:01:08;98660.91;;;1.98;100.00
45763;BME280;37512;52.408;13.356;2024-01-15T04:05:11;98661.50;;;1.77;100.00
45763;BME280;37512;52.408;13.356;2024-01-15T04:09:13;98657.81;;;1.94;100.00
45763;BME280;37512;52.408;13.356;2024-01-15T04:13:15;98654.97;;;1.96;100.00
45763;BME280;37512;52.408;13.356;2024-01-15T04:17:16;98674.97;;;2.29;100.00
45763;BME280;37512;52.408;13.356;2024-01-15T04:21:19;98649.22;;;2.23;100.00
45763;BME280;37512;52.408;13.356;2024-01-15T04:25:20;98663.44;;;1.91;100.00
45763;BME280;37512;52.408;13.356;2024-01-15T04:29:22;98656.72;;;2.11;100.00
45763;BME280;37512;52.408;13.356;2024-01-15T04:33:23;98642.63;;;2.19;100.00
45763;BME280;37512;52.408;13.356;2024-01-15T04:37:26;98643.63;;;2.18;100.00
45763;BME280;37512;52.408;13.356;2024-01-15T04:41:27;98646.06;;;1.97;100.00
45763;BME280;37512;52.408;13.356;2024-01-15T04:45:29;98654.19;;;2.18;100.00
45763;BME280;37512;52.408;13.356;2024-01-15T04:49:31;98639.34;;;2.17;100.00
45763;BME280;37512;52.408;13.356;2024-01-15T04:53:36;98640.69;;;2.13;100.00
45763;BME280;37512;52.408;13.356;2024-01-15T04:57:37;98613.91;;;2.16;100.00
45763;BME280;37512;52.408;13.356;2024-01-15T05:01:39;98607.06;;;2.30;100.00
45763;BME280;37512;52.408;13.356;2024-01-15T05:05:41;98624.94;;;1.97;100.00
45763;BME280;37512;52.408;13.356;2024-01-15T05:09:45;98630.81;;;2.07;100.00
45763;BME280;37512;52.408;13.356;2024-01-15T05:13:47;98621.84;;;1.85;100.00
45763;BME280;37512;52.408;13.356;2024-01-15T05:17:48;98606.09;;;2.23;100.00
45763;BME280;37512;52.408;13.356;2024-01-15T05:21:50;98616.03;;;1.90;100.00
45763;BME280;37512;52.408;13.356;2024-01-15T05:25:52;98616.03;;;1.90;100.00
45763;BME280;37512;52.408;13.356;2024-01-15T05:29:53;98614.63;;;2.33;100.00
45763;BME280;37512;52.408;13.356;2024-01-15T05:33:55;98616.38;;;2.18;100.00
45763;BME280;37512;52.408;13.356;2024-01-15T05:37:59;98617.72;;;2.59;100.00
45763;BME280;37512;52.408;13.356;2024-01-15T05:42:01;98606.16;;;2.15;100.00
45763;BME280;37512;52.408;13.356;2024-01-15T05:46:02;98610.00;;;2.35;100.00
45763;BME280;37512;52.408;13.356;2024-01-15T05:50:04;98618.72;;;2.44;100.00
45763;BME280;37512;52.408;13.356;2024-01-15T05:54:13;98606.63;;;2.41;100.00
45763;BME280;37512;52.408;13.356;2024-01-15T05:58:15;98601.66;;;2.23;100.00
45763;BME280;37512;52.408;13.356;2024-01-15T06:02:16;98598.59;;;2.11;100.00
45763;BME280;37512;52.408;13.356;2024-01-15T06:06:24;98603.72;;;2.13;100.00
45763;BME280;37512;52.408;13.356;2024-01-15T06:10:28;98612.75;;;2.19;100.00
45763;BME280;37512;52.408;13.356;2024-01-15T06:14:30;98604.31;;;2.46;100.00
45763;BME280;37512;52.408;13.356;2024-01-15T06:18:34;98598.19;;;2.46;100.00
45763;BME280;37512;52.408;13.356;2024-01-15T06:22:36;98597.06;;;2.40;100.00
45763;BME280;37512;52.408;13.356;2024-01-15T06:26:40;98601.31;;;2.49;100.00
45763;BME280;37512;52.408;13.356;2024-01-15T06:30:43;98603.66;;;2.21;100.00
45763;BME280;37512;52.408;13.356;2024-01-15T06:34:44;98590.50;;;2.36;100.00
45763;BME280;37512;52.408;13.356;2024-01-15T06:38:46;98606.81;;;2.17;100.00
45763;BME280;37512;52.408;13.356;2024-01-15T06:42:50;98597.78;;;2.34;100.00
45763;BME280;37512;52.408;13.356;2024-01-15T06:46:52;98604.50;;;2.45;100.00
45763;BME280;37512;52.408;13.356;2024-01-15T06:50:54;98597.31;;;2.30;100.00
45763;BME280;37512;52.408;13.356;2024-01-15T06:54:56;98603.25;;;2.32;100.00
45763;BME280;37512;52.408;13.356;2024-01-15T06:59:00;98602.69;;;2.60;100.00
45763;BME280;37512;52.408;13.356;2024-01-15T07:03:02;98606.38;;;2.73;100.00
45763;BME280;37512;52.408;13.356;2024-01-15T07:07:06;98615.03;;;2.22;100.00
45763;BME280;37512;52.408;13.356;2024-01-15T07:11:09;98626.28;;;2.47;99.85
45763;BME280;37512;52.408;13.356;2024-01-15T07:15:11;98612.84;;;2.71;98.07
45763;BME280;37512;52.408;13.356;2024-01-15T07:19:15;98618.41;;;2.61;97.47
45763;BME280;37512;52.408;13.356;2024-01-15T07:23:17;98620.47;;;2.89;97.60
45763;BME280;37512;52.408;13.356;2024-01-15T07:27:24;98658.09;;;2.76;96.92
45763;BME280;37512;52.408;13.356;2024-01-15T07:31:29;98652.41;;;2.87;96.08
45763;BME280;37512;52.408;13.356;2024-01-15T07:35:32;98657.50;;;2.89;96.47
45763;BME280;37512;52.408;13.356;2024-01-15T07:39:33;98652.81;;;2.99;95.65
45763;BME280;37512;52.408;13.356;2024-01-15T07:43:36;98652.13;;;2.82;97.00
45763;BME280;37512;52.408;13.356;2024-01-15T07:47:40;98649.16;;;2.77;96.51
45763;BME280;37512;52.408;13.356;2024-01-15T07:51:44;98638.75;;;2.76;96.00
45763;BME280;37512;52.408;13.356;2024-01-15T07:55:49;98648.00;;;2.80;97.04
45763;BME280;37512;52.408;13.356;2024-01-15T07:59:53;98664.97;;;2.85;96.88
45763;BME280;37512;52.408;13.356;2024-01-15T08:03:54;98669.34;;;2.78;97.02
45763;BME280;37512;52.408;13.356;2024-01-15T08:07:56;98671.09;;;2.86;96.89
45763;BME280;37512;52.408;13.356;2024-01-15T08:11:59;98689.78;;;2.84;97.93
45763;BME280;37512;52.408;13.356;2024-01-15T08:16:01;98670.41;;;2.69;98.75
45763;BME280;37512;52.408;13.356;2024-01-15T08:20:04;98673.47;;;2.81;98.93
45763;BME280;37512;52.408;13.356;2024-01-15T08:24:08;98672.13;;;2.62;100.00
45763;BME280;37512;52.408;13.356;2024-01-15T08:28:10;98687.69;;;2.80;100.00
45763;BME280;37512;52.408;13.356;2024-01-15T08:32:15;98681.59;;;2.94;99.09
45763;BME280;37512;52.408;13.356;2024-01-15T08:36:18;98675.78;;;2.76;99.35
45763;BME280;37512;52.408;13.356;2024-01-15T08:40:19;98663.22;;;2.78;97.59
45763;BME280;37512;52.408;13.356;2024-01-15T08:44:21;98669.78;;;3.05;96.08
45763;BME280;37512;52.408;13.356;2024-01-15T08:48:23;98693.25;;;2.85;95.87
45763;BME280;37512;52.408;13.356;2024-01-15T08:52:25;98680.72;;;3.01;96.24
45763;BME280;37512;52.408;13.356;2024-01-15T08:56:26;98699.09;;;2.80;96.75
45763;BME280;37512;52.408;13.356;2024-01-15T09:00:29;98689.44;;;2.87;97.14
45763;BME280;37512;52.408;13.356;2024-01-15T09:04:30;98688.97;;;2.84;98.43
45763;BME280;37512;52.408;13.356;2024-01-15T09:08:32;98696.78;;;2.77;98.74
45763;BME280;37512;52.408;13.356;2024-01-15T09:12:34;98679.78;;;2.71;100.00
45763;BME280;37512;52.408;13.356;2024-01-15T09:16:35;98700.78;;;2.50;100.00
45763;BME280;37512;52.408;13.356;2024-01-15T09:20:37;98691.66;;;2.53;100.00
45763;BME280;37512;52.408;13.356;2024-01-15T09:24:40;98702.13;;;2.69;100.00
45763;BME280;37512;52.408;13.356;2024-01-15T09:28:43;98694.41;;;2.59;100.00
45763;BME280;37512;52.408;13.356;2024-01-15T09:32:44;98709.63;;;2.57;100.00
45763;BME280;37512;52.408;13.356;2024-01-15T09:36:46;98707.50;;;2.61;100.00
45763;BME280;37512;52.408;13.356;2024-01-15T09:40:50;98715.47;;;2.76;100.00
45763;BME280;37512;52.408;13.356;2024-01-15T09:44:52;98725.09;;;2.91;100.00
45763;BME280;37512;52.408;13.356;2024-01-15T09:48:54;98717.16;;;2.91;99.67
45763;BME280;37512;52.408;13.356;2024-01-15T09:52:56;98724.75;;;2.94;100.00
45763;BME280;37512;52.408;13.356;2024-01-15T09:57:00;98708.88;;;3.17;98.86
45763;BME280;37512;52.408;13.356;2024-01-15T10:01:02;98711.50;;;2.80;99.81
45763;BME280;37512;52.408;13.356;2024-01-15T10:05:09;98706.25;;;2.71;100.00
45763;BME280;37512;52.408;13.356;2024-01-15T10:09:12;98696.81;;;2.92;100.00
45763;BME280;37512;52.408;13.356;2024-01-15T10:13:16;98698.44;;;2.78;100.00
45763;BME280;37512;52.408;13.356;2024-01-15T10:17:17;98700.94;;;3.17;99.43
45763;BME280;37512;52.408;13.356;2024-01-15T10:21:19;98691.53;;;2.92;99.87
45763;BME280;37512;52.408;13.356;2024-01-15T10:25:21;98689.47;;;3.02;98.99
45763;BME280;37512;52.408;13.356;2024-01-15T10:29:27;98682.66;;;3.08;98.69
45763;BME280;37512;52.408;13.356;2024-01-15T10:33:28;98704.25;;;2.96;98.55
45763;BME280;37512;52.408;13.356;2024-01-15T10:37:34;98686.38;;;2.98;98.71
45763;BME280;37512;52.408;13.356;2024-01-15T10:41:36;98672.66;;;3.18;96.07
45763;BME280;37512;52.408;13.356;2024-01-15T10:45:38;98687.19;;;3.37;95.87
45763;BME280;37512;52.408;13.356;2024-01-15T10:49:39;98706.69;;;3.21;96.31
45763;BME280;37512;52.408;13.356;2024-01-15T10:53:45;98688.69;;;2.79;98.46
45763;BME280;37512;52.408;13.356;2024-01-15T10:57:48;98683.31;;;3.24;98.01
45763;BME280;37512;52.408;13.356;2024-01-15T11:01:51;98679.75;;;3.17;97.12
45763;BME280;37512;52.408;13.356;2024-01-15T11:05:59;98687.09;;;3.30;96.02
45763;BME280;37512;52.408;13.356;2024-01-15T11:10:05;98677.34;;;3.08;97.06
45763;BME280;37512;52.408;13.356;2024-01-15T11:14:07;98679.25;;;3.37;96.71
45763;BME280;37512;52.408;13.356;2024-01-15T11:18:09;98691.44;;;3.23;97.49
45763;BME280;37512;52.408;13.356;2024-01-15T11:26:44;98702.31;;;2.90;100.00
45763;BME280;37512;52.408;13.356;2024-01-15T11:30:47;98700.25;;;3.00;100.00
45763;BME280;37512;52.408;13.356;2024-01-15T11:34:59;98712.53;;;2.93;100.00
45763;BME280;37512;52.408;13.356;2024-01-15T11:43:28;98697.47;;;2.48;100.00
45763;BME280;37512;52.408;13.356;2024-01-15T11:52:07;98736.84;;;2.43;100.00
45763;BME280;37512;52.408;13.356;2024-01-15T11:56:15;98705.59;;;2.92;100.00
45763;BME280;37512;52.408;13.356;2024-01-15T12:00:21;98705.00;;;2.59;100.00
45763;BME280;37512;52.408;13.356;2024-01-15T12:04:26;98702.78;;;2.71;100.00
45763;BME280;37512;52.408;13.356;2024-01-15T12:08:29;98710.88;;;2.47;100.00
45763;BME280;37512;52.408;13.356;2024-01-15T12:16:41;98729.41;;;2.38;100.00
45763;BME280;37512;52.408;13.356;2024-01-15T12:20:44;98718.19;;;2.67;100.00
45763;BME280;37512;52.408;13.356;2024-01-15T12:24:48;98728.69;;;2.53;100.00
45763;BME280;37512;52.408;13.356;2024-01-15T12:28:50;98702.84;;;2.86;100.00
45763;BME280;37512;52.408;13.356;2024-01-15T12:32:55;98711.97;;;2.83;100.00
45763;BME280;37512;52.408;13.356;2024-01-15T12:36:57;98722.44;;;2.46;100.00
45763;BME280;37512;52.408;13.356;2024-01-15T12:41:00;98722.56;;;2.52;100.00
45763;BME280;37512;52.408;13.356;2024-01-15T12:45:03;98721.34;;;2.86;100.00
45763;BME280;37512;52.408;13.356;2024-01-15T12:49:05;98730.28;;;2.62;100.00
45763;BME280;37512;52.408;13.356;2024-01-15T12:53:07;98732.78;;;2.24;100.00
45763;BME280;37512;52.408;13.356;2024-01-15T12:57:09;98728.53;;;2.15;100.00
45763;BME280;37512;52.408;13.356;2024-01-15T13:01:11;98736.41;;;2.31;100.00
45763;BME280;37512;52.408;13.356;2024-01-15T13:05:12;98737.69;;;2.66;100.00
45763;BME280;37512;52.408;13.356;2024-01-15T13:09:17;98736.88;;;2.35;100.00
45763;BME280;37512;52.408;13.356;2024-01-15T13:13:18;98749.94;;;2.59;100.00
45763;BME280;37512;52.408;13.356;2024-01-15T13:17:20;98750.69;;;2.14;100.00
45763;BME280;37512;52.408;13.356;2024-01-15T13:21:23;98763.00;;;2.30;100.00
45763;BME280;37512;52.408;13.356;2024-01-15T13:25:25;98746.81;;;2.25;100.00
45763;BME280;37512;52.408;13.356;2024-01-15T13:29:27;98753.81;;;2.49;100.00
45763;BME280;37512;52.408;13.356;2024-01-15T13:33:28;98746.97;;;2.62;100.00
45763;BME280;37512;52.408;13.356;2024-01-15T13:37:30;98759.56;;;2.52;100.00
45763;BME280;37512;52.408;13.356;2024-01-15T13:41:32;98777.69;;;2.24;100.00
45763;BME280;37512;52.408;13.356;2024-01-15T13:45:34;98793.41;;;2.26;100.00
45763;BME280;37512;52.408;13.356;2024-01-15T13:49:37;98787.63;;;2.61;100.00
45763;BME280;37512;52.408;13.356;2024-01-15T13:53:38;98797.19;;;2.23;100.00
45763;BME280;37512;52.408;13.356;2024-01-15T13:57:46;98793.41;;;2.65;100.00
45763;BME280;37512;52.408;13.356;2024-01-15T14:01:47;98791.09;;;2.62;100.00
45763;BME280;37512;52.408;13.356;2024-01-15T14:05:49;98800.53;;;2.17;100.00
45763;BME280;37512;52.408;13.356;2024-01-15T14:09:52;98804.47;;;2.29;100.00
45763;BME280;37512;52.408;13.356;2024-01-15T14:13:56;98814.81;;;2.47;100.00
45763;BME280;37512;52.408;13.356;2024-01-15T14:17:58;98813.09;;;2.15;100.00
45763;BME280;37512;52.408;13.356;2024-01-15T14:22:00;98819.38;;;2.14;100.00
45763;BME280;37512;52.408;13.356;2024-01-15T14:26:02;98834.09;;;2.00;100.00
45763;BME280;37512;52.408;13.356;2024-01-15T14:30:06;98829.59;;;2.17;100.00
45763;BME280;37512;52.408;13.356;2024-01-15T14:34:09;98825.88;;;2.42;100.00
45763;BME280;37512;52.408;13.356;2024-01-15T14:38:12;98827.59;;;2.19;100.00
45763;BME280;37512;52.408;13.356;2024-01-15T14:42:14;98846.97;;;2.11;100.00
45763;BME280;37512;52.408;13.356;2024-01-15T14:46:16;98855.16;;;2.25;100.00
45763;BME280;37512;52.408;13.356;2024-01-15T14:50:18;98847.09;;;2.26;100.00
45763;BME280;37512;52.408;13.356;2024-01-15T14:54:19;98857.47;;;2.36;100.00
45763;BME280;37512;52.408;13.356;2024-01-15T14:58:25;98880.34;;;1.96;100.00
45763;BME280;37512;52.408;13.356;2024-01-15T15:02:27;98888.22;;;2.29;100.00
45763;BME280;37512;52.408;13.356;2024-01-15T15:06:32;98880.13;;;2.22;100.00
45763;BME280;37512;52.408;13.356;2024-01-15T15:10:37;98890.25;;;2.58;100.00
45763;BME280;37512;52.408;13.356;2024-01-15T15:14:39;98898.09;;;2.35;100.00
45763;BME280;37512;52.408;13.356;2024-01-15T15:18:56;98917.09;;;2.38;100.00
45763;BME280;37512;52.408;13.356;2024-01-15T15:22:58;98910.34;;;2.20;100.00
45763;BME280;37512;52.408;13.356;2024-01-15T15:27:05;98916.28;;;2.30;100.00
45763;BME280;37512;52.408;13.356;2024-01-15T15:31:09;98911.66;;;2.24;100.00
45763;BME280;37512;52.408;13.356;2024-01-15T15:35:12;98918.41;;;2.34;100.00
45763;BME280;37512;52.408;13.356;2024-01-15T15:39:14;98929.94;;;2.58;100.00
45763;BME280;37512;52.408;13.356;2024-01-15T15:43:19;98921.41;;;2.23;100.00
45763;BME280;37512;52.408;13.356;2024-01-15T15:47:20;98932.78;;;2.40;100.00
45763;BME280;37512;52.408;13.356;2024-01-15T15:51:23;98941.25;;;2.11;100.00
45763;BME280;37512;52.408;13.356;2024-01-15T15:55:24;98942.72;;;2.22;100.00
45763;BME280;37512;52.408;13.356;2024-01-15T15:59:26;98944.72;;;1.79;100.00
45763;BME280;37512;52.408;13.356;2024-01-15T16:03:28;98948.34;;;2.19;100.00
45763;BME280;37512;52.408;13.356;2024-01-15T16:07:29;98954.13;;;1.90;100.00
45763;BME280;37512;52.408;13.356;2024-01-15T16:11:31;98958.75;;;2.12;100.00
45763;BME280;37512;52.408;13.356;2024-01-15T16:15:35;98956.75;;;2.30;100.00
45763;BME280;37512;52.408;13.356;2024-01-15T16:19:37;98966.34;;;2.23;100.00
45763;BME280;37512;52.408;13.356;2024-01-15T16:24:00;98972.31;;;1.93;100.00
45763;BME280;37512;52.408;13.356;2024-01-15T16:28:24;98970.16;;;2.29;100.00
45763;BME280;37512;52.408;13.356;2024-01-15T16:32:26;98974.09;;;1.76;100.00
45763;BME280;37512;52.408;13.356;2024-01-15T16:36:30;98976.91;;;2.23;100.00
45763;BME280;37512;52.408;13.356;2024-01-15T16:40:33;98985.16;;;2.45;100.00
45763;BME280;37512;52.408;13.356;2024-01-15T16:44:35;98981.00;;;2.42;100.00
45763;BME280;37512;52.408;13.356;2024-01-15T16:48:37;98997.22;;;2.47;100.00
45763;BME280;37512;52.408;13.356;2024-01-15T16:52:40;99000.19;;;2.03;100.00
45763;BME280;37512;52.408;13.356;2024-01-15T16:56:41;99007.78;;;1.82;100.00
45763;BME280;37512;52.408;13.356;2024-01-15T17:00:43;99010.78;;;2.20;100.00
45763;BME280;37512;52.408;13.356;2024-01-15T17:04:44;99017.19;;;1.85;100.00
45763;BME280;37512;52.408;13.356;2024-01-15T17:08:46;99011.91;;;1.85;100.00
45763;BME280;37512;52.408;13.356;2024-01-15T17:12:50;99028.56;;;1.85;100.00
45763;BME280;37512;52.408;13.356;2024-01-15T17:16:51;99034.22;;;2.15;100.00
45763;BME280;37512;52.408;13.356;2024-01-15T17:20:53;99034.56;;;2.28;100.00
45763;BME280;37512;52.408;13.356;2024-01-15T17:24:54;99037.53;;;2.08;100.00
45763;BME280;37512;52.408;13.356;2024-01-15T17:28:56;99043.50;;;2.27;100.00
45763;BME280;37512;52.408;13.356;2024-01-15T17:32:57;99046.28;;;2.33;100.00
45763;BME280;37512;52.408;13.356;2024-01-15T17:36:59;99055.38;;;2.31;100.00
45763;BME280;37512;52.408;13.356;2024-01-15T17:41:04;99045.63;;;2.15;100.00
45763;BME280;37512;52.408;13.356;2024-01-15T17:45:05;99051.75;;;2.16;100.00
45763;BME280;37512;52.408;13.356;2024-01-15T17:49:08;99055.88;;;2.10;100.00
45763;BME280;37512;52.408;13.356;2024-01-15T17:53:10;99054.38;;;2.16;100.00
45763;BME280;37512;52.408;13.356;2024-01-15T17:57:12;99057.03;;;2.48;100.00
45763;BME280;37512;52.408;13.356;2024-01-15T18:01:17;99059.16;;;2.20;100.00
45763;BME280;37512;52.408;13.356;2024-01-15T18:05:20;99061.81;;;2.20;100.00
45763;BME280;37512;52.408;13.356;2024-01-15T18:09:22;99060.81;;;2.13;100.00
45763;BME280;37512;52.408;13.356;2024-01-15T18:13:23;99075.50;;;1.91;100.00
45763;BME280;37512;52.408;13.356;2024-01-15T18:17:25;99074.34;;;1.94;100.00
45763;BME280;37512;52.408;13.356;2024-01-15T18:21:28;99087.06;;;1.98;100.00
45763;BME280;37512;52.408;13.356;2024-01-15T18:25:29;99094.19;;;2.22;100.00
45763;BME280;37512;52.408;13.356;2024-01-15T18:29:31;99097.94;;;2.03;100.00
45763;BME280;37512;52.408;13.356;2024-01-15T18:33:34;99105.28;;;2.50;100.00
45763;BME280;37512;52.408;13.356;2024-01-15T18:37:40;99106.16;;;1.84;100.00
45763;BME280;37512;52.408;13.356;2024-01-15T18:41:45;99112.88;;;2.37;100.00
45763;BME280;37512;52.408;13.356;2024-01-15T18:45:47;99119.41;;;2.00;100.00
45763;BME280;37512;52.408;13.356;2024-01-15T18:49:48;99125.41;;;1.68;100.00
45763;BME280;37512;52.408;13.356;2024-01-15T18:53:52;99131.38;;;2.29;100.00
45763;BME280;37512;52.408;13.356;2024-01-15T18:57:53;99142.09;;;2.19;100.00
45763;BME280;37512;52.408;13.356;2024-01-15T19:01:58;99146.88;;;2.16;100.00
45763;BME280;37512;52.408;13.356;2024-01-15T19:05:59;99152.06;;;1.49;100.00
45763;BME280;37512;52.408;13.356;2024-01-15T19:10:01;99159.25;;;2.15;100.00
45763;BME280;37512;52.408;13.356;2024-01-15T19:14:02;99166.81;;;2.02;100.00
45763;BME280;37512;52.408;13.356;2024-01-15T19:18:05;99167.03;;;2.17;100.00
45763;BME280;37512;52.408;13.356;2024-01-15T19:22:10;99177.19;;;1.95;100.00
45763;BME280;37512;52.408;13.356;2024-01-15T19:26:21;99191.22;;;1.96;100.00
45763;BME280;37512;52.408;13.356;2024-01-15T19:30:23;99189.31;;;2.22;100.00
45763;BME280;37512;52.408;13.356;2024-01-15T19:34:24;99198.91;;;2.15;97.43
45763;BME280;37512;52.408;13.356;2024-01-15T19:38:26;99197.75;;;1.75;97.85
45763;BME280;37512;52.408;13.356;2024-01-15T19:42:36;99211.03;;;1.92;96.50
45763;BME280;37512;52.408;13.356;2024-01-15T19:46:37;99219.69;;;2.10;93.97
45763;BME280;37512;52.408;13.356;2024-01-15T19:50:43;99217.69;;;1.70;91.73
45763;BME280;37512;52.408;13.356;2024-01-15T19:54:47;99224.09;;;1.93;87.97
45763;BME280;37512;52.408;13.356;2024-01-15T19:58:48;99229.81;;;1.89;85.06
45763;BME280;37512;52.408;13.356;2024-01-15T20:02:50;99246.06;;;1.68;85.45
45763;BME280;37512;52.408;13.356;2024-01-15T20:06:52;99253.50;;;1.98;86.57
45763;BME280;37512;52.408;13.356;2024-01-15T20:10:56;99261.00;;;1.85;85.73
45763;BME280;37512;52.408;13.356;2024-01-15T20:15:02;99260.75;;;1.70;83.49
45763;BME280;37512;52.408;13.356;2024-01-15T20:19:05;99264.38;;;1.69;83.84
45763;BME280;37512;52.408;13.356;2024-01-15T20:23:07;99279.03;;;1.64;84.93
45763;BME280;37512;52.408;13.356;2024-01-15T20:27:11;99277.44;;;1.71;84.18
45763;BME280;37512;52.408;13.356;2024-01-15T20:31:22;99288.81;;;1.71;83.97
45763;BME280;37512;52.408;13.356;2024-01-15T20:35:24;99286.34;;;1.44;85.88
45763;BME280;37512;52.408;13.356;2024-01-15T20:39:28;99305.56;;;1.36;86.06
45763;BME280;37512;52.408;13.356;2024-01-15T20:43:30;99310.00;;;1.36;89.07
45763;BME280;37512;52.408;13.356;2024-01-15T20:47:32;99310.53;;;1.57;86.49
45763;BME280;37512;52.408;13.356;2024-01-15T20:51:39;99326.59;;;0.75;88.02
45763;BME280;37512;52.408;13.356;2024-01-15T20:55:40;99330.31;;;1.35;85.59
45763;BME280;37512;52.408;13.356;2024-01-15T20:59:42;99327.38;;;1.20;86.94
45763;BME280;37512;52.408;13.356;2024-01-15T21:03:44;99333.09;;;1.16;89.20
45763;BME280;37512;52.408;13.356;2024-01-15T21:07:50;99347.94;;;1.17;88.30
45763;BME280;37512;52.408;13.356;2024-01-15T21:11:52;99357.59;;;0.90;90.40
45763;BME280;37512;52.408;13.356;2024-01-15T21:15:53;99358.34;;;1.18;88.69
45763;BME280;37512;52.408;13.356;2024-01-15T21:19:55;99363.25;;;1.31;88.67
45763;BME280;37512;52.408;13.356;2024-01-15T21:23:59;99358.91;;;1.40;87.35
45763;BME280;37512;52.408;13.356;2024-01-15T21:28:01;99361.94;;;0.82;91.35
45763;BME280;37512;52.408;13.356;2024-01-15T21:32:04;99366.22;;;1.10;88.20